Mckinley Sea — WDE5024 — position and weather

sailwx.info

Track history (hours):
 
Tides and Currents Weather Stations Pressure Air Temp Water Temp Dewpoint Dewpoint Depression Visibility Wind Speed Wind Dir Waves Ship Positions

Mckinley Sea

Owner: Kirby Offshore Marine, LLC, Staten Island, NY. More information available from US FCC via Universal Licensing System and Coast Guard Vessel Documentation Center.

Last reported at 2015-Jun-03 18:30 UTC. Time now 2015-Jun-03 19:25 UTC.
Position N 40°39' W 074°07'.

Length 46 m; draft 7 m.

Type: Towing. MMSI: 367360980.

Date/timePositionNaut miles runAvg speedWind from/ knotsBaromVisibWave heightAir tempDewpointWater temp
2015-Jun-03 18:30N 40°39' W 074°07'0 0.0
2015-Jun-03 17:32N 40°39' W 074°07'1 1.2
2015-Jun-03 16:33N 40°39' W 074°05'0 0.0
2015-Jun-03 15:33N 40°39' W 074°05'0 0.0
2015-Jun-03 14:33N 40°39' W 074°05'0 0.0
2015-Jun-03 13:33N 40°39' W 074°05'0 0.0
2015-Jun-03 12:33N 40°39' W 074°05'0 0.0
2015-Jun-03 11:33N 40°39' W 074°05'0 0.0
2015-Jun-03 10:33N 40°39' W 074°05'0 0.0
2015-Jun-03 09:33N 40°39' W 074°05'0 0.0
2015-Jun-03 08:33N 40°39' W 074°05'0 0.0
2015-Jun-03 07:33N 40°39' W 074°05'0 0.0
2015-Jun-03 06:33N 40°39' W 074°05'0 0.0
2015-Jun-03 05:33N 40°39' W 074°05'0 0.0
2015-Jun-03 04:33N 40°39' W 074°05'0 0.0
2015-Jun-03 03:33N 40°39' W 074°05'5 5.2
2015-Jun-03 02:33N 40°38' W 074°12'0 0.0
2015-Jun-03 01:33N 40°38' W 074°12'0 0.0
2015-Jun-03 00:33N 40°38' W 074°12'0 0.0
2015-Jun-02 23:33N 40°38' W 074°12'1 1.5
2015-Jun-02 22:33N 40°39' W 074°10'4 3.7
2015-Jun-02 21:33N 40°39' W 074°05'0 0.0
2015-Jun-02 20:33N 40°39' W 074°05'0 0.0
2015-Jun-02 19:33N 40°39' W 074°05'0 0.1
2015-Jun-02 18:33N 40°39' W 074°05'2 1.8
2015-Jun-02 17:33N 40°39' W 074°03'0 0.0
2015-Jun-02 16:33N 40°39' W 074°03'0 0.0
2015-Jun-02 15:33N 40°39' W 074°03'0 0.2
2015-Jun-02 14:33N 40°39' W 074°03'0 0.1
2015-Jun-02 13:33N 40°39' W 074°03'0 0.0
2015-Jun-02 12:33N 40°39' W 074°03'0 0.1
2015-Jun-02 11:33N 40°39' W 074°03'4 3.9
2015-Jun-02 10:33N 40°39' W 074°08'4 3.6
2015-Jun-02 09:33N 40°38' W 074°12'0 0.0
2015-Jun-02 08:03N 40°38' W 074°12'0 0.0
2015-Jun-02 04:31N 40°38' W 074°12'0 0.0
2015-Jun-02 03:30N 40°38' W 074°12'0 0.0
2015-Jun-02 02:33N 40°38' W 074°12'0 0.0
2015-Jun-02 01:33N 40°38' W 074°12'0 0.0
2015-Jun-02 00:33N 40°38' W 074°12'0 0.0
2015-Jun-01 23:33N 40°38' W 074°12'0 0.0
2015-Jun-01 22:33N 40°38' W 074°12'0 0.0
2015-Jun-01 21:33N 40°38' W 074°12'0 0.0
2015-Jun-01 20:33N 40°38' W 074°12'0 0.0
2015-Jun-01 19:33N 40°38' W 074°12'0 0.0
2015-Jun-01 18:33N 40°38' W 074°12'0 0.0
2015-Jun-01 17:32N 40°38' W 074°12'0 0.0
2015-Jun-01 16:33N 40°38' W 074°12'0 0.0
2015-Jun-01 15:33N 40°38' W 074°12'0 0.0
2015-Jun-01 14:33N 40°38' W 074°12'0 0.0
2015-Jun-01 13:33N 40°38' W 074°12'0 0.0
2015-Jun-01 12:33N 40°38' W 074°12'0 0.0
2015-Jun-01 11:33N 40°38' W 074°12'0 0.0
2015-Jun-01 10:31N 40°38' W 074°12'0 0.0
2015-Jun-01 09:33N 40°38' W 074°12'0 0.0
2015-Jun-01 08:33N 40°38' W 074°12'0 0.0
2015-Jun-01 07:33N 40°38' W 074°12'0 0.0
2015-Jun-01 06:33N 40°38' W 074°12'0 0.0
2015-Jun-01 05:33N 40°38' W 074°12'0 0.0
2015-Jun-01 02:26N 40°38' W 074°12'0 0.0
2015-Jun-01 01:33N 40°38' W 074°12'0 0.0
2015-Jun-01 00:33N 40°38' W 074°12'0 0.0
2015-May-31 23:33N 40°38' W 074°12'0 0.0
2015-May-31 22:33N 40°38' W 074°12'0 0.0
2015-May-31 21:33N 40°38' W 074°12'0 0.0
2015-May-31 20:33N 40°38' W 074°12'0 0.0
2015-May-31 19:27N 40°38' W 074°12'0 0.0
2015-May-31 18:33N 40°38' W 074°12'0 0.0
2015-May-31 17:33N 40°38' W 074°12'0 0.0
2015-May-31 16:33N 40°38' W 074°12'0 0.0
2015-May-31 15:26N 40°38' W 074°12'0 0.0
2015-May-31 14:33N 40°38' W 074°12'0 0.0
2015-May-31 13:28N 40°38' W 074°12'0 0.0
2015-May-31 12:31N 40°38' W 074°12'0 0.0
2015-May-31 11:17N 40°38' W 074°12'0 0.0
2015-May-31 10:31N 40°38' W 074°12'0 0.0
2015-May-31 07:29N 40°38' W 074°12'0 0.0
2015-May-31 06:31N 40°38' W 074°12'0 0.0
2015-May-31 05:33N 40°38' W 074°12'0 0.0
2015-May-31 04:33N 40°38' W 074°12'0 0.0
2015-May-31 03:33N 40°38' W 074°12'0 0.0
2015-May-31 02:30N 40°38' W 074°12'0 0.0
2015-May-31 01:31N 40°38' W 074°12'0 0.0
2015-May-31 00:30N 40°38' W 074°12'0 0.0
2015-May-30 22:28N 40°38' W 074°12'0 0.0
2015-May-30 21:08N 40°38' W 074°12'0 0.0
2015-May-30 20:06N 40°38' W 074°12'0 0.0
2015-May-30 19:33N 40°38' W 074°12'0 0.0
2015-May-30 18:33N 40°38' W 074°12'2 2.3
2015-May-30 17:33N 40°39' W 074°10'5 5.4
2015-May-30 16:33N 40°39' W 074°03'0 0.1
2015-May-30 15:33N 40°39' W 074°03'5 5.4
2015-May-30 14:33N 40°39' W 074°10'0 0.0
2015-May-30 13:33N 40°39' W 074°10'0 0.0
2015-May-30 12:33N 40°39' W 074°10'0 0.0
2015-May-30 11:33N 40°39' W 074°10'6 5.5
2015-May-30 10:33N 40°39' W 074°03'2 2.0
2015-May-30 09:33N 40°37' W 074°03'9 9.1
2015-May-30 08:33N 40°30' W 073°56'8 8.2
2015-May-30 07:33N 40°22' W 073°54'9 9.3
2015-May-30 06:33N 40°12' W 073°56'9 9.2
2015-May-30 05:33N 40°03' W 073°56'9 9.3
2015-May-30 04:32N 39°54' W 073°58'9 9.1
2015-May-30 03:33N 39°45' W 073°60'9 9.1
2015-May-30 02:33N 39°37' W 074°05'9 9.0
2015-May-30 01:32N 39°29' W 074°10'  
Track history (hours):
 
Tides and Currents Weather Stations Pressure Air Temp Water Temp Dewpoint Dewpoint Depression Visibility Wind Speed Wind Dir Waves Ship Positions

Mckinley Sea

Owner: Kirby Offshore Marine, LLC, Staten Island, NY. More information available from US FCC via Universal Licensing System and Coast Guard Vessel Documentation Center.

Last reported at 2015-Jun-03 18:30 UTC. Time now 2015-Jun-03 19:25 UTC.
Position N 40°39' W 074°07'.

Length 46 m; draft 7 m.

Type: Towing. MMSI: 367360980.

Date/timePositionNaut miles runAvg speedWind from/ knotsBaromVisibWave heightAir tempDewpointWater temp
2015-Jun-03 18:30N 40°39' W 074°07'0 0.0
2015-Jun-03 17:32N 40°39' W 074°07'1 1.2
2015-Jun-03 16:33N 40°39' W 074°05'0 0.0
2015-Jun-03 15:33N 40°39' W 074°05'0 0.0
2015-Jun-03 14:33N 40°39' W 074°05'0 0.0
2015-Jun-03 13:33N 40°39' W 074°05'0 0.0
2015-Jun-03 12:33N 40°39' W 074°05'0 0.0
2015-Jun-03 11:33N 40°39' W 074°05'0 0.0
2015-Jun-03 10:33N 40°39' W 074°05'0 0.0
2015-Jun-03 09:33N 40°39' W 074°05'0 0.0
2015-Jun-03 08:33N 40°39' W 074°05'0 0.0
2015-Jun-03 07:33N 40°39' W 074°05'0 0.0
2015-Jun-03 06:33N 40°39' W 074°05'0 0.0
2015-Jun-03 05:33N 40°39' W 074°05'0 0.0
2015-Jun-03 04:33N 40°39' W 074°05'0 0.0
2015-Jun-03 03:33N 40°39' W 074°05'5 5.2
2015-Jun-03 02:33N 40°38' W 074°12'0 0.0
2015-Jun-03 01:33N 40°38' W 074°12'0 0.0
2015-Jun-03 00:33N 40°38' W 074°12'0 0.0
2015-Jun-02 23:33N 40°38' W 074°12'1 1.5
2015-Jun-02 22:33N 40°39' W 074°10'4 3.7
2015-Jun-02 21:33N 40°39' W 074°05'0 0.0
2015-Jun-02 20:33N 40°39' W 074°05'0 0.0
2015-Jun-02 19:33N 40°39' W 074°05'0 0.1
2015-Jun-02 18:33N 40°39' W 074°05'2 1.8
2015-Jun-02 17:33N 40°39' W 074°03'0 0.0
2015-Jun-02 16:33N 40°39' W 074°03'0 0.0
2015-Jun-02 15:33N 40°39' W 074°03'0 0.2
2015-Jun-02 14:33N 40°39' W 074°03'0 0.1
2015-Jun-02 13:33N 40°39' W 074°03'0 0.0
2015-Jun-02 12:33N 40°39' W 074°03'0 0.1
2015-Jun-02 11:33N 40°39' W 074°03'4 3.9
2015-Jun-02 10:33N 40°39' W 074°08'4 3.6
2015-Jun-02 09:33N 40°38' W 074°12'0 0.0
2015-Jun-02 08:03N 40°38' W 074°12'0 0.0
2015-Jun-02 04:31N 40°38' W 074°12'0 0.0
2015-Jun-02 03:30N 40°38' W 074°12'0 0.0
2015-Jun-02 02:33N 40°38' W 074°12'0 0.0
2015-Jun-02 01:33N 40°38' W 074°12'0 0.0
2015-Jun-02 00:33N 40°38' W 074°12'0 0.0
2015-Jun-01 23:33N 40°38' W 074°12'0 0.0
2015-Jun-01 22:33N 40°38' W 074°12'0 0.0
2015-Jun-01 21:33N 40°38' W 074°12'0 0.0
2015-Jun-01 20:33N 40°38' W 074°12'0 0.0
2015-Jun-01 19:33N 40°38' W 074°12'0 0.0
2015-Jun-01 18:33N 40°38' W 074°12'0 0.0
2015-Jun-01 17:32N 40°38' W 074°12'0 0.0
2015-Jun-01 16:33N 40°38' W 074°12'0 0.0
2015-Jun-01 15:33N 40°38' W 074°12'0 0.0
2015-Jun-01 14:33N 40°38' W 074°12'0 0.0
2015-Jun-01 13:33N 40°38' W 074°12'0 0.0
2015-Jun-01 12:33N 40°38' W 074°12'0 0.0
2015-Jun-01 11:33N 40°38' W 074°12'0 0.0
2015-Jun-01 10:31N 40°38' W 074°12'0 0.0
2015-Jun-01 09:33N 40°38' W 074°12'0 0.0
2015-Jun-01 08:33N 40°38' W 074°12'0 0.0
2015-Jun-01 07:33N 40°38' W 074°12'0 0.0
2015-Jun-01 06:33N 40°38' W 074°12'0 0.0
2015-Jun-01 05:33N 40°38' W 074°12'0 0.0
2015-Jun-01 02:26N 40°38' W 074°12'0 0.0
2015-Jun-01 01:33N 40°38' W 074°12'0 0.0
2015-Jun-01 00:33N 40°38' W 074°12'0 0.0
2015-May-31 23:33N 40°38' W 074°12'0 0.0
2015-May-31 22:33N 40°38' W 074°12'0 0.0
2015-May-31 21:33N 40°38' W 074°12'0 0.0
2015-May-31 20:33N 40°38' W 074°12'0 0.0
2015-May-31 19:27N 40°38' W 074°12'0 0.0
2015-May-31 18:33N 40°38' W 074°12'0 0.0
2015-May-31 17:33N 40°38' W 074°12'0 0.0
2015-May-31 16:33N 40°38' W 074°12'0 0.0
2015-May-31 15:26N 40°38' W 074°12'0 0.0
2015-May-31 14:33N 40°38' W 074°12'0 0.0
2015-May-31 13:28N 40°38' W 074°12'0 0.0
2015-May-31 12:31N 40°38' W 074°12'0 0.0
2015-May-31 11:17N 40°38' W 074°12'0 0.0
2015-May-31 10:31N 40°38' W 074°12'0 0.0
2015-May-31 07:29N 40°38' W 074°12'0 0.0
2015-May-31 06:31N 40°38' W 074°12'0 0.0
2015-May-31 05:33N 40°38' W 074°12'0 0.0
2015-May-31 04:33N 40°38' W 074°12'0 0.0
2015-May-31 03:33N 40°38' W 074°12'0 0.0
2015-May-31 02:30N 40°38' W 074°12'0 0.0
2015-May-31 01:31N 40°38' W 074°12'0 0.0
2015-May-31 00:30N 40°38' W 074°12'0 0.0
2015-May-30 22:28N 40°38' W 074°12'0 0.0
2015-May-30 21:08N 40°38' W 074°12'0 0.0
2015-May-30 20:06N 40°38' W 074°12'0 0.0
2015-May-30 19:33N 40°38' W 074°12'0 0.0
2015-May-30 18:33N 40°38' W 074°12'2 2.3
2015-May-30 17:33N 40°39' W 074°10'5 5.4
2015-May-30 16:33N 40°39' W 074°03'0 0.1
2015-May-30 15:33N 40°39' W 074°03'5 5.4
2015-May-30 14:33N 40°39' W 074°10'0 0.0
2015-May-30 13:33N 40°39' W 074°10'0 0.0
2015-May-30 12:33N 40°39' W 074°10'0 0.0
2015-May-30 11:33N 40°39' W 074°10'6 5.5
2015-May-30 10:33N 40°39' W 074°03'2 2.0
2015-May-30 09:33N 40°37' W 074°03'9 9.1
2015-May-30 08:33N 40°30' W 073°56'8 8.2
2015-May-30 07:33N 40°22' W 073°54'9 9.3
2015-May-30 06:33N 40°12' W 073°56'9 9.2
2015-May-30 05:33N 40°03' W 073°56'9 9.3
2015-May-30 04:32N 39°54' W 073°58'9 9.1
2015-May-30 03:33N 39°45' W 073°60'9 9.1
2015-May-30 02:33N 39°37' W 074°05'9 9.0
2015-May-30 01:32N 39°29' W 074°10'  

Dump ship's entire track history